Time;durP1;ratioP1;P1;durP2;ratioP2;P2;SDS_P1;SDS_P2;PMS_P1;PMS_P2;Temp;Humidity;BMP_temperature;BMP_pressure;BME280_temperature;BME280_humidity;BME280_pressure;Samples;Min_cycle;Max_cycle;Signal;HPM_P1;HPM_P2
2024/04/18 00:00:40;;;;;;;9.63;5.37;;;;;;;;;;7348079;19;20701;-39
2024/04/18 00:03:05;;;;;;;7.83;4.60;;;;;;;;;;7325283;19;20325;-40
2024/04/18 00:05:31;;;;;;;7.40;4.10;;;;;;;;;;7346461;19;20412;-39
2024/04/18 00:07:56;;;;;;;9.18;4.88;;;;;;;;;;7324268;19;20324;-44
2024/04/18 00:10:22;;;;;;;14.07;6.30;;;;;;;;;;7347487;19;20301;-39
2024/04/18 00:12:47;;;;;;;10.73;6.00;;;;;;;;;;7347626;19;20404;-41
2024/04/18 00:15:15;;;;;;;9.37;4.60;;;;;;;;;;7325462;19;20310;-42
2024/04/18 00:17:41;;;;;;;9.27;4.70;;;;;;;;;;7347720;19;20781;-42
2024/04/18 00:20:06;;;;;;;7.10;4.60;;;;;;;;;;7325733;19;20449;-40
2024/04/18 00:22:32;;;;;;;8.13;5.00;;;;;;;;;;7348078;19;20325;-40
2024/04/18 00:24:57;;;;;;;8.33;4.90;;;;;;;;;;7323936;19;20869;-42
2024/04/18 00:27:23;;;;;;;10.45;5.40;;;;;;;;;;7344858;19;20308;-40
2024/04/18 00:29:48;;;;;;;10.40;5.60;;;;;;;;;;7347862;19;20325;-40
2024/04/18 00:32:14;;;;;;;10.20;5.60;;;;;;;;;;7325396;19;20308;-41
2024/04/18 00:34:40;;;;;;;10.30;5.90;;;;;;;;;;7346842;19;20324;-39
2024/04/18 00:37:05;;;;;;;10.13;5.77;;;;;;;;;;7325114;19;20341;-41
2024/04/18 00:39:30;;;;;;;9.20;5.00;;;;;;;;;;7346899;19;20300;-40
2024/04/18 00:41:56;;;;;;;10.73;5.50;;;;;;;;;;7324781;19;20333;-40
2024/04/18 00:44:21;;;;;;;11.60;4.93;;;;;;;;;;7346472;19;20337;-41
2024/04/18 00:46:49;;;;;;;14.70;5.38;;;;;;;;;;7347190;19;20342;-40
2024/04/18 00:49:15;;;;;;;10.25;5.80;;;;;;;;;;7324297;19;20313;-40
2024/04/18 00:51:41;;;;;;;11.48;5.70;;;;;;;;;;7346853;19;20940;-42
2024/04/18 00:54:07;;;;;;;11.03;6.27;;;;;;;;;;7324276;19;20750;-41
2024/04/18 00:56:33;;;;;;;12.40;6.80;;;;;;;;;;7347266;19;20339;-40
2024/04/18 00:58:59;;;;;;;10.27;6.25;;;;;;;;;;7323041;19;20864;-41
2024/04/18 01:01:25;;;;;;;12.30;6.70;;;;;;;;;;7346726;19;20308;-40
2024/04/18 01:03:51;;;;;;;11.27;6.47;;;;;;;;;;7345971;19;20339;-38
2024/04/18 01:06:16;;;;;;;11.25;7.30;;;;;;;;;;7323907;19;20354;-40
2024/04/18 01:08:41;;;;;;;12.63;7.40;;;;;;;;;;7345901;19;20881;-38
2024/04/18 01:11:07;;;;;;;10.73;6.30;;;;;;;;;;7324312;19;20362;-44
2024/04/18 01:13:36;;;;;;;13.10;6.82;;;;;;;;;;7346061;19;20325;-42
2024/04/18 01:16:03;;;;;;;11.98;6.70;;;;;;;;;;7323565;19;20329;-40
2024/04/18 01:18:29;;;;;;;13.02;6.53;;;;;;;;;;7345633;19;20836;-41
2024/04/18 01:20:54;;;;;;;9.65;6.28;;;;;;;;;;7323385;19;20321;-41
2024/04/18 01:23:20;;;;;;;12.43;6.35;;;;;;;;;;7345275;19;20346;-42
2024/04/18 01:25:45;;;;;;;13.10;6.67;;;;;;;;;;7340076;19;20331;-44
2024/04/18 01:28:11;;;;;;;13.27;7.30;;;;;;;;;;7320135;19;20931;-43
2024/04/18 01:30:36;;;;;;;9.63;6.00;;;;;;;;;;7346607;19;20320;-44
2024/04/18 01:33:02;;;;;;;11.20;5.82;;;;;;;;;;7324288;19;20360;-41
2024/04/18 01:35:27;;;;;;;10.47;6.30;;;;;;;;;;7346285;19;20307;-41
2024/04/18 01:37:53;;;;;;;11.77;6.70;;;;;;;;;;7332729;19;20321;-40
2024/04/18 01:40:18;;;;;;;16.63;7.70;;;;;;;;;;7341436;19;20309;-41
2024/04/18 01:42:43;;;;;;;10.53;6.60;;;;;;;;;;7346274;19;20329;-41
2024/04/18 01:45:09;;;;;;;10.87;6.77;;;;;;;;;;7323362;19;20443;-41
2024/04/18 01:47:34;;;;;;;12.70;6.80;;;;;;;;;;7346554;19;20321;-44
2024/04/18 01:50:00;;;;;;;13.77;7.90;;;;;;;;;;7321181;19;20888;-40
2024/04/18 01:52:25;;;;;;;12.43;7.37;;;;;;;;;;7346326;19;20301;-40
2024/04/18 01:54:50;;;;;;;12.85;7.60;;;;;;;;;;7345198;19;20416;-43
2024/04/18 01:57:16;;;;;;;12.97;7.40;;;;;;;;;;7319109;19;20387;-43
2024/04/18 01:59:41;;;;;;;13.07;7.47;;;;;;;;;;7346047;19;20324;-46
2024/04/18 02:02:06;;;;;;;10.47;6.90;;;;;;;;;;7323054;19;20355;-43
2024/04/18 02:04:32;;;;;;;12.70;7.05;;;;;;;;;;7345508;19;20341;-39
2024/04/18 02:06:57;;;;;;;14.10;7.90;;;;;;;;;;7322877;19;20421;-41
2024/04/18 02:09:23;;;;;;;21.70;10.60;;;;;;;;;;7345464;19;20920;-39
2024/04/18 02:11:48;;;;;;;14.10;8.20;;;;;;;;;;7345756;19;20320;-44
2024/04/18 02:14:14;;;;;;;17.15;8.55;;;;;;;;;;7322071;19;20399;-41
2024/04/18 02:16:39;;;;;;;15.55;8.23;;;;;;;;;;7344853;19;20317;-41
2024/04/18 02:19:04;;;;;;;15.40;9.17;;;;;;;;;;7321816;19;20346;-44
2024/04/18 02:21:30;;;;;;;15.17;9.53;;;;;;;;;;7345664;19;20309;-42
2024/04/18 02:23:55;;;;;;;18.03;10.10;;;;;;;;;;7321601;19;20408;-41
2024/04/18 02:26:20;;;;;;;18.98;9.93;;;;;;;;;;7344146;19;20329;-44
2024/04/18 02:28:46;;;;;;;16.50;9.00;;;;;;;;;;7343160;19;20350;-40
2024/04/18 02:31:11;;;;;;;14.10;8.40;;;;;;;;;;7322823;19;20290;-42
2024/04/18 02:33:37;;;;;;;17.90;9.33;;;;;;;;;;7344993;19;20737;-47
2024/04/18 02:36:02;;;;;;;17.33;9.45;;;;;;;;;;7322435;19;20360;-39
2024/04/18 02:38:28;;;;;;;14.52;8.25;;;;;;;;;;7344758;19;20699;-41
2024/04/18 02:41:06;;;;;;;16.70;9.80;;;;;;;;;;7323293;19;20321;-40
2024/04/18 02:43:32;;;;;;;16.10;9.95;;;;;;;;;;7344199;19;20332;-40
2024/04/18 02:45:57;;;;;;;15.40;8.90;;;;;;;;;;7321529;19;20435;-44
2024/04/18 02:48:22;;;;;;;19.97;10.87;;;;;;;;;;7344098;19;20308;-40
2024/04/18 02:50:48;;;;;;;22.92;12.43;;;;;;;;;;7344079;19;20317;-40
2024/04/18 02:53:13;;;;;;;17.27;10.37;;;;;;;;;;7321770;19;20309;-48
2024/04/18 02:55:39;;;;;;;16.77;9.60;;;;;;;;;;7343516;19;20321;-39
2024/04/18 02:58:05;;;;;;;16.05;8.38;;;;;;;;;;7320863;19;20332;-40
2024/04/18 03:00:30;;;;;;;14.47;8.70;;;;;;;;;;7345162;19;20836;-41
2024/04/18 03:02:55;;;;;;;16.40;9.80;;;;;;;;;;7328425;19;20328;-42
2024/04/18 03:05:21;;;;;;;14.27;8.50;;;;;;;;;;7350096;19;20911;-40
2024/04/18 03:07:46;;;;;;;14.10;8.60;;;;;;;;;;7350733;19;20341;-40
2024/04/18 03:10:12;;;;;;;20.48;10.95;;;;;;;;;;7328492;19;21116;-42
2024/04/18 03:12:37;;;;;;;18.00;10.87;;;;;;;;;;7351230;19;20324;-38
2024/04/18 03:15:03;;;;;;;19.20;10.77;;;;;;;;;;7327690;19;20345;-41
2024/04/18 03:17:28;;;;;;;15.20;9.70;;;;;;;;;;7350997;19;20387;-40
2024/04/18 03:19:54;;;;;;;21.30;10.60;;;;;;;;;;7327826;19;20863;-41
2024/04/18 03:22:19;;;;;;;21.88;10.85;;;;;;;;;;7349508;19;20734;-40
2024/04/18 03:24:45;;;;;;;20.27;11.83;;;;;;;;;;7350877;19;20317;-40
2024/04/18 03:27:10;;;;;;;18.50;10.43;;;;;;;;;;7325836;19;20329;-43
2024/04/18 03:29:35;;;;;;;18.67;10.50;;;;;;;;;;7351957;19;20720;-40
2024/04/18 03:32:02;;;;;;;22.25;12.65;;;;;;;;;;7328169;19;20437;-39
2024/04/18 03:34:28;;;;;;;19.38;11.15;;;;;;;;;;7350061;19;20296;-40
2024/04/18 03:36:54;;;;;;;21.92;11.70;;;;;;;;;;7335163;19;20312;-40
2024/04/18 03:39:19;;;;;;;21.27;11.48;;;;;;;;;;7350123;19;20301;-39
2024/04/18 03:41:45;;;;;;;25.07;13.33;;;;;;;;;;7350233;19;20658;-40
2024/04/18 03:44:11;;;;;;;24.42;12.65;;;;;;;;;;7326921;19;20352;-40
2024/04/18 03:46:37;;;;;;;29.13;14.37;;;;;;;;;;7349148;19;20856;-43
2024/04/18 03:49:02;;;;;;;15.25;8.50;;;;;;;;;;7327007;19;20810;-45
2024/04/18 03:51:29;;;;;;;18.10;8.60;;;;;;;;;;7349754;19;20351;-39
2024/04/18 03:53:55;;;;;;;17.35;9.60;;;;;;;;;;7325960;19;20316;-41
2024/04/18 03:56:21;;;;;;;17.40;9.20;;;;;;;;;;7348515;19;20316;-41
2024/04/18 03:58:46;;;;;;;16.60;8.30;;;;;;;;;;7348152;19;20328;-41
2024/04/18 04:01:11;;;;;;;13.50;7.60;;;;;;;;;;7326910;19;21122;-39
2024/04/18 04:03:37;;;;;;;14.55;8.50;;;;;;;;;;7347086;19;20912;-42
2024/04/18 04:06:02;;;;;;;14.00;8.50;;;;;;;;;;7325816;19;20340;-44
2024/04/18 04:08:28;;;;;;;18.27;8.87;;;;;;;;;;7348621;19;21011;-40
2024/04/18 04:10:53;;;;;;;19.90;10.50;;;;;;;;;;7333643;19;20312;-40
2024/04/18 04:13:18;;;;;;;17.83;9.70;;;;;;;;;;7343233;19;20304;-44
2024/04/18 04:15:47;;;;;;;21.58;9.85;;;;;;;;;;7347923;19;20336;-40
2024/04/18 04:18:13;;;;;;;17.08;9.00;;;;;;;;;;7326567;19;20290;-42
2024/04/18 04:20:38;;;;;;;19.25;10.20;;;;;;;;;;7349042;19;20346;-40
2024/04/18 04:23:03;;;;;;;16.57;9.80;;;;;;;;;;7326652;19;20486;-40
2024/04/18 04:25:29;;;;;;;18.93;10.53;;;;;;;;;;7348130;19;20296;-38
2024/04/18 04:27:54;;;;;;;19.60;10.83;;;;;;;;;;7323521;19;20329;-40
2024/04/18 04:30:19;;;;;;;20.83;11.77;;;;;;;;;;7347547;19;20289;-40
2024/04/18 04:32:45;;;;;;;27.23;14.73;;;;;;;;;;7348676;19;20333;-40
2024/04/18 04:35:12;;;;;;;29.67;14.30;;;;;;;;;;7325483;19;20325;-41
2024/04/18 04:37:38;;;;;;;23.60;13.20;;;;;;;;;;7348755;19;20352;-40
2024/04/18 04:40:04;;;;;;;27.58;14.35;;;;;;;;;;7325527;19;20317;-41
2024/04/18 04:42:30;;;;;;;25.42;14.63;;;;;;;;;;7347918;19;20315;-41
2024/04/18 04:44:55;;;;;;;26.00;14.23;;;;;;;;;;7324807;19;20884;-42
2024/04/18 04:47:21;;;;;;;21.90;13.10;;;;;;;;;;7347329;19;20308;-39
2024/04/18 04:49:46;;;;;;;24.20;12.60;;;;;;;;;;7347378;19;20321;-40
2024/04/18 04:52:11;;;;;;;24.10;12.90;;;;;;;;;;7326097;19;20294;-41
2024/04/18 04:54:37;;;;;;;19.57;12.00;;;;;;;;;;7347322;19;20861;-40
2024/04/18 04:57:03;;;;;;;22.60;12.20;;;;;;;;;;7324757;19;20348;-40
2024/04/18 04:59:28;;;;;;;31.38;15.90;;;;;;;;;;7347655;19;20360;-40
2024/04/18 05:01:54;;;;;;;22.40;12.87;;;;;;;;;;7327036;19;20317;-39
2024/04/18 05:04:19;;;;;;;24.43;13.90;;;;;;;;;;7346436;19;20683;-41
2024/04/18 05:06:44;;;;;;;25.07;13.80;;;;;;;;;;7347018;19;20329;-39
2024/04/18 05:09:10;;;;;;;26.90;14.40;;;;;;;;;;7325010;19;20321;-42
2024/04/18 05:11:35;;;;;;;31.63;15.57;;;;;;;;;;7346946;19;20328;-46
2024/04/18 05:14:01;;;;;;;29.70;15.93;;;;;;;;;;7321161;19;20329;-43
2024/04/18 05:16:26;;;;;;;26.60;15.07;;;;;;;;;;7346542;19;20627;-42
2024/04/18 05:18:52;;;;;;;21.33;11.63;;;;;;;;;;7347336;19;20849;-39
2024/04/18 05:21:17;;;;;;;15.80;9.48;;;;;;;;;;7325477;19;20297;-40
2024/04/18 05:23:43;;;;;;;18.27;10.63;;;;;;;;;;7344739;19;20343;-41
2024/04/18 05:26:09;;;;;;;16.27;10.02;;;;;;;;;;7321250;19;20742;-41
2024/04/18 05:28:41;;;;;;;15.65;10.15;;;;;;;;;;7344504;19;20302;-42
2024/04/18 05:31:06;;;;;;;15.77;9.68;;;;;;;;;;7324137;19;20324;-45
2024/04/18 05:33:32;;;;;;;16.80;10.37;;;;;;;;;;7345673;19;20305;-42
2024/04/18 05:35:58;;;;;;;20.15;11.80;;;;;;;;;;7324621;19;20743;-46
2024/04/18 05:38:24;;;;;;;26.40;15.18;;;;;;;;;;7345956;19;20828;-42
2024/04/18 05:40:49;;;;;;;22.58;13.40;;;;;;;;;;7346302;19;20332;-41
2024/04/18 05:43:15;;;;;;;20.93;13.80;;;;;;;;;;7324286;19;20293;-42
2024/04/18 05:45:42;;;;;;;25.13;15.47;;;;;;;;;;7345584;19;20332;-42
2024/04/18 05:48:07;;;;;;;28.48;16.10;;;;;;;;;;7323302;19;20634;-41
2024/04/18 05:50:33;;;;;;;32.08;17.58;;;;;;;;;;7346651;19;20321;-44
2024/04/18 05:52:58;;;;;;;29.53;16.00;;;;;;;;;;7323638;19;20324;-41
2024/04/18 05:55:24;;;;;;;33.33;19.60;;;;;;;;;;7345254;19;20309;-42
2024/04/18 05:57:49;;;;;;;32.20;18.83;;;;;;;;;;7344635;19;20324;-42
2024/04/18 06:00:15;;;;;;;28.38;16.83;;;;;;;;;;7324103;19;20313;-42
2024/04/18 06:02:40;;;;;;;25.57;16.07;;;;;;;;;;7345611;19;20396;-41
2024/04/18 06:05:05;;;;;;;28.90;16.50;;;;;;;;;;7322014;19;20317;-44
2024/04/18 06:07:31;;;;;;;28.63;17.70;;;;;;;;;;7345239;19;20642;-40
2024/04/18 06:09:56;;;;;;;35.78;20.63;;;;;;;;;;7322264;19;20374;-41
2024/04/18 06:12:22;;;;;;;29.73;18.53;;;;;;;;;;7342363;19;20802;-41
2024/04/18 06:14:47;;;;;;;30.57;19.30;;;;;;;;;;7344645;19;20391;-41
2024/04/18 06:17:12;;;;;;;35.00;20.90;;;;;;;;;;7322725;19;20286;-50
2024/04/18 06:19:38;;;;;;;28.30;17.60;;;;;;;;;;7346440;19;20683;-39
2024/04/18 06:22:04;;;;;;;28.87;16.70;;;;;;;;;;7322706;19;20948;-44
2024/04/18 06:24:30;;;;;;;25.48;16.23;;;;;;;;;;7344540;19;20880;-41
2024/04/18 06:26:56;;;;;;;29.40;18.02;;;;;;;;;;7319770;19;20319;-41
2024/04/18 06:29:21;;;;;;;26.03;15.70;;;;;;;;;;7343978;19;20844;-41
2024/04/18 06:31:47;;;;;;;83.35;50.15;;;;;;;;;;7342493;19;20871;-45
2024/04/18 06:34:12;;;;;;;25.17;15.93;;;;;;;;;;7319301;19;20389;-43
2024/04/18 06:36:37;;;;;;;23.80;15.80;;;;;;;;;;7343429;19;20396;-40
2024/04/18 06:39:03;;;;;;;25.58;15.18;;;;;;;;;;7321406;19;20871;-44
2024/04/18 06:41:28;;;;;;;41.90;22.90;;;;;;;;;;7343810;19;20309;-41
2024/04/18 06:43:54;;;;;;;38.50;21.20;;;;;;;;;;7326143;19;20325;-41
2024/04/18 06:46:19;;;;;;;28.65;15.98;;;;;;;;;;7342090;19;20307;-43
2024/04/18 06:48:45;;;;;;;24.98;15.93;;;;;;;;;;7344276;19;20348;-41
2024/04/18 06:51:10;;;;;;;22.73;13.90;;;;;;;;;;7322162;19;20345;-40
2024/04/18 06:53:36;;;;;;;30.27;15.70;;;;;;;;;;7342923;19;20341;-40
2024/04/18 06:56:01;;;;;;;21.03;12.47;;;;;;;;;;7320248;19;20723;-47
2024/04/18 06:58:26;;;;;;;16.95;11.88;;;;;;;;;;7342290;19;20320;-40
2024/04/18 07:00:52;;;;;;;20.90;12.90;;;;;;;;;;7344057;19;20392;-42
2024/04/18 07:03:18;;;;;;;34.87;15.77;;;;;;;;;;7321288;19;20363;-52
2024/04/18 07:05:43;;;;;;;43.70;20.42;;;;;;;;;;7342975;19;20325;-40
2024/04/18 07:08:10;;;;;;;50.88;21.85;;;;;;;;;;7318681;19;20328;-41
2024/04/18 07:10:35;;;;;;;20.50;11.63;;;;;;;;;;7343770;19;20301;-41
2024/04/18 07:13:01;;;;;;;20.40;11.20;;;;;;;;;;7321062;19;20685;-40
2024/04/18 07:15:26;;;;;;;20.63;12.02;;;;;;;;;;7342268;19;20845;-41
2024/04/18 07:17:54;;;;;;;17.25;10.05;;;;;;;;;;7342263;19;20345;-43
2024/04/18 07:20:20;;;;;;;16.70;10.32;;;;;;;;;;7319847;19;20293;-45
2024/04/18 07:22:46;;;;;;;31.07;16.50;;;;;;;;;;7342867;19;20336;-43
2024/04/18 07:25:11;;;;;;;74.40;30.30;;;;;;;;;;7319415;19;20333;-41
2024/04/18 07:27:36;;;;;;;28.80;14.25;;;;;;;;;;7340102;19;20707;-41
2024/04/18 07:30:02;;;;;;;24.20;10.97;;;;;;;;;;7320809;19;20337;-45
2024/04/18 07:32:27;;;;;;;23.60;12.60;;;;;;;;;;7342615;19;20301;-40
2024/04/18 07:34:53;;;;;;;16.65;8.88;;;;;;;;;;7335700;19;21021;-39
2024/04/18 07:37:20;;;;;;;12.20;7.60;;;;;;;;;;7327706;19;20890;-41
2024/04/18 07:39:45;;;;;;;10.65;6.68;;;;;;;;;;7343285;19;20673;-45
2024/04/18 07:42:12;;;;;;;19.47;9.60;;;;;;;;;;7320227;19;20321;-43
2024/04/18 07:44:40;;;;;;;12.20;7.35;;;;;;;;;;7342047;19;20328;-41
2024/04/18 07:47:06;;;;;;;14.00;7.80;;;;;;;;;;7318941;19;20336;-42
2024/04/18 07:49:32;;;;;;;39.85;17.75;;;;;;;;;;7349016;19;20405;-40
2024/04/18 07:51:57;;;;;;;18.20;9.40;;;;;;;;;;7326720;19;20328;-42
2024/04/18 07:54:22;;;;;;;20.67;8.60;;;;;;;;;;7347257;19;20916;-43
2024/04/18 07:56:48;;;;;;;12.13;6.03;;;;;;;;;;7348750;19;20331;-46
2024/04/18 07:59:13;;;;;;;17.20;7.93;;;;;;;;;;7325806;19;20282;-47
2024/04/18 08:01:40;;;;;;;10.07;5.60;;;;;;;;;;7346714;19;20320;-46
2024/04/18 08:04:06;;;;;;;10.10;5.40;;;;;;;;;;7326477;19;20324;-46
2024/04/18 08:06:31;;;;;;;23.73;13.13;;;;;;;;;;7346941;19;20288;-43
2024/04/18 08:08:56;;;;;;;19.23;9.90;;;;;;;;;;7326876;19;20345;-46
2024/04/18 08:11:22;;;;;;;37.47;19.47;;;;;;;;;;7348307;19;20325;-46
2024/04/18 08:13:47;;;;;;;33.60;19.63;;;;;;;;;;7348911;19;20324;-51
2024/04/18 08:16:13;;;;;;;44.80;19.17;;;;;;;;;;7325526;19;21590;-49
2024/04/18 08:18:38;;;;;;;38.90;15.80;;;;;;;;;;7346071;19;20762;-45
2024/04/18 08:21:03;;;;;;;24.20;13.80;;;;;;;;;;7325186;19;20316;-49
2024/04/18 08:23:29;;;;;;;23.40;12.90;;;;;;;;;;7347344;19;20307;-44
2024/04/18 08:25:54;;;;;;;11.67;5.57;;;;;;;;;;7326198;19;20445;-41
2024/04/18 08:28:20;;;;;;;8.20;4.13;;;;;;;;;;7345346;19;20327;-41
2024/04/18 08:30:45;;;;;;;8.77;3.70;;;;;;;;;;7348031;19;20333;-44
2024/04/18 08:33:11;;;;;;;9.20;4.93;;;;;;;;;;7325019;19;20324;-45
2024/04/18 08:35:37;;;;;;;9.10;4.27;;;;;;;;;;7345339;19;20333;-41
2024/04/18 08:38:03;;;;;;;14.10;6.30;;;;;;;;;;7325020;19;20325;-48
2024/04/18 08:40:28;;;;;;;25.17;10.13;;;;;;;;;;7348940;19;20320;-42
2024/04/18 08:42:54;;;;;;;11.67;6.43;;;;;;;;;;7331447;19;20321;-41
2024/04/18 08:45:24;;;;;;;11.95;6.75;;;;;;;;;;7343798;19;20324;-42
2024/04/18 08:47:50;;;;;;;29.48;13.50;;;;;;;;;;7347029;19;20329;-42
2024/04/18 08:50:16;;;;;;;36.30;14.98;;;;;;;;;;7325414;19;20316;-44
2024/04/18 08:52:44;;;;;;;20.03;9.10;;;;;;;;;;7348032;19;20895;-44
2024/04/18 08:55:09;;;;;;;20.60;8.63;;;;;;;;;;7324231;19;20738;-49
2024/04/18 08:57:42;;;;;;;20.93;8.97;;;;;;;;;;7347207;19;20309;-41
2024/04/18 09:00:07;;;;;;;10.43;5.10;;;;;;;;;;7324225;19;20348;-41
2024/04/18 09:02:33;;;;;;;9.32;4.82;;;;;;;;;;7345011;19;20322;-42
2024/04/18 09:04:59;;;;;;;13.90;6.50;;;;;;;;;;7320574;19;21344;-41
2024/04/18 09:07:24;;;;;;;9.20;4.82;;;;;;;;;;7346510;19;20372;-46
2024/04/18 09:09:53;;;;;;;36.03;14.87;;;;;;;;;;7347872;19;20671;-45
2024/04/18 09:12:18;;;;;;;8.98;4.20;;;;;;;;;;7325874;19;20296;-45
2024/04/18 09:14:44;;;;;;;10.77;5.10;;;;;;;;;;7346138;19;20893;-44
2024/04/18 09:17:14;;;;;;;7.93;4.13;;;;;;;;;;7323645;19;21007;-45
2024/04/18 09:19:39;;;;;;;30.15;12.38;;;;;;;;;;7347196;19;20325;-44
2024/04/18 09:22:04;;;;;;;7.68;4.22;;;;;;;;;;7324190;19;20325;-41
2024/04/18 09:24:30;;;;;;;7.60;3.37;;;;;;;;;;7345970;19;20301;-46
2024/04/18 09:26:56;;;;;;;12.93;5.43;;;;;;;;;;7320407;19;20339;-45
2024/04/18 09:29:21;;;;;;;12.00;5.10;;;;;;;;;;7347003;19;20293;-41
2024/04/18 09:31:47;;;;;;;17.10;6.63;;;;;;;;;;7345874;19;20323;-43
2024/04/18 09:34:14;;;;;;;21.60;8.90;;;;;;;;;;7323069;19;20814;-42
2024/04/18 09:36:40;;;;;;;17.02;7.45;;;;;;;;;;7345591;19;20328;-52
2024/04/18 09:39:10;;;;;;;35.65;16.27;;;;;;;;;;7323371;19;20408;-45
2024/04/18 09:41:37;;;;;;;12.27;4.40;;;;;;;;;;7345960;19;20848;-48
2024/04/18 09:44:10;;;;;;;17.48;7.70;;;;;;;;;;7322692;19;20325;-46
2024/04/18 09:46:35;;;;;;;43.95;17.00;;;;;;;;;;7344493;19;20319;-44
2024/04/18 09:49:01;;;;;;;16.90;7.25;;;;;;;;;;7322575;19;20336;-41
2024/04/18 09:51:27;;;;;;;12.67;5.30;;;;;;;;;;7344645;19;20684;-42
2024/04/18 09:53:52;;;;;;;30.93;13.30;;;;;;;;;;7344623;19;20373;-47
2024/04/18 09:56:21;;;;;;;47.58;18.45;;;;;;;;;;7324061;19;20631;-41
2024/04/18 09:58:48;;;;;;;5.43;2.70;;;;;;;;;;7344544;19;20320;-47
2024/04/18 10:01:14;;;;;;;12.35;6.03;;;;;;;;;;7322764;19;20282;-48
2024/04/18 10:03:39;;;;;;;12.43;5.13;;;;;;;;;;7342944;19;20325;-43
2024/04/18 10:06:06;;;;;;;9.20;3.60;;;;;;;;;;7321158;19;20356;-48
2024/04/18 10:08:34;;;;;;;21.33;9.23;;;;;;;;;;7344619;19;20683;-41
2024/04/18 10:11:00;;;;;;;24.88;10.52;;;;;;;;;;7320186;19;20782;-47
2024/04/18 10:13:25;;;;;;;7.07;3.67;;;;;;;;;;7343855;19;20300;-44
2024/04/18 10:16:01;;;;;;;25.90;11.05;;;;;;;;;;7344703;19;20411;-50
2024/04/18 10:18:35;;;;;;;34.45;15.05;;;;;;;;;;7319783;19;20304;-45
2024/04/18 10:21:05;;;;;;;24.55;10.23;;;;;;;;;;7322130;19;20338;-46
2024/04/18 10:23:32;;;;;;;7.03;4.05;;;;;;;;;;7342154;19;20309;-48
2024/04/18 10:25:58;;;;;;;5.95;3.50;;;;;;;;;;7319438;19;20325;-45
2024/04/18 10:28:25;;;;;;;13.03;6.33;;;;;;;;;;7342144;19;20297;-47
2024/04/18 10:30:51;;;;;;;8.00;4.23;;;;;;;;;;7344498;19;20332;-48
2024/04/18 10:33:17;;;;;;;14.23;6.33;;;;;;;;;;7320535;19;20318;-41
2024/04/18 10:35:42;;;;;;;6.35;2.88;;;;;;;;;;7344103;19;20324;-40
2024/04/18 10:38:08;;;;;;;5.85;2.95;;;;;;;;;;7321322;19;20331;-44
2024/04/18 10:40:33;;;;;;;5.27;2.60;;;;;;;;;;7337505;19;20857;-45
2024/04/18 10:43:11;;;;;;;6.63;2.50;;;;;;;;;;7313351;19;20335;-44
2024/04/18 10:45:37;;;;;;;8.57;3.30;;;;;;;;;;7340986;19;20369;-40
2024/04/18 10:48:02;;;;;;;4.75;2.40;;;;;;;;;;7320187;19;20321;-43
2024/04/18 10:50:29;;;;;;;11.20;4.00;;;;;;;;;;7342426;19;20297;-42
2024/04/18 10:52:54;;;;;;;8.75;3.17;;;;;;;;;;7325929;19;20337;-41
2024/04/18 10:55:21;;;;;;;7.60;3.20;;;;;;;;;;7340791;19;20292;-40
2024/04/18 10:57:48;;;;;;;10.00;3.08;;;;;;;;;;7342211;19;20320;-41
2024/04/18 11:00:14;;;;;;;8.15;2.88;;;;;;;;;;7320664;19;20297;-40
2024/04/18 11:02:39;;;;;;;6.47;1.80;;;;;;;;;;7340805;19;20312;-40
2024/04/18 11:05:05;;;;;;;4.83;2.20;;;;;;;;;;7319379;19;20361;-42
2024/04/18 11:07:30;;;;;;;6.15;2.33;;;;;;;;;;7342912;19;20872;-40
2024/04/18 11:09:56;;;;;;;6.30;2.63;;;;;;;;;;7321059;19;20345;-40
2024/04/18 11:12:21;;;;;;;9.88;2.10;;;;;;;;;;7341936;19;20292;-41
2024/04/18 11:14:48;;;;;;;4.47;1.67;;;;;;;;;;7341538;19;20313;-40
2024/04/18 11:17:13;;;;;;;5.55;1.70;;;;;;;;;;7319938;19;20286;-43
2024/04/18 11:19:39;;;;;;;5.03;1.40;;;;;;;;;;7342358;19;20349;-42
2024/04/18 11:22:04;;;;;;;6.00;1.70;;;;;;;;;;7321725;19;20356;-39
2024/04/18 11:24:29;;;;;;;3.63;1.25;;;;;;;;;;7348804;19;20359;-39
2024/04/18 11:26:55;;;;;;;3.83;1.40;;;;;;;;;;7323696;19;20780;-40
2024/04/18 11:29:29;;;;;;;5.57;1.52;;;;;;;;;;7348543;19;20292;-38
2024/04/18 11:32:04;;;;;;;4.28;1.35;;;;;;;;;;7326660;19;20327;-39
2024/04/18 11:34:29;;;;;;;5.00;1.55;;;;;;;;;;7348516;19;20315;-41
2024/04/18 11:36:56;;;;;;;5.43;1.30;;;;;;;;;;7327560;19;20321;-40
2024/04/18 11:39:22;;;;;;;4.97;1.03;;;;;;;;;;7348490;19;20339;-42
2024/04/18 11:41:47;;;;;;;3.87;1.00;;;;;;;;;;7349320;19;20868;-40
2024/04/18 11:44:13;;;;;;;4.00;1.00;;;;;;;;;;7326368;19;20309;-40
2024/04/18 11:46:39;;;;;;;4.32;1.02;;;;;;;;;;7348859;19;20321;-41
2024/04/18 11:49:04;;;;;;;5.43;1.90;;;;;;;;;;7326493;19;20851;-43
2024/04/18 11:51:30;;;;;;;8.97;2.30;;;;;;;;;;7349394;19;20301;-42
2024/04/18 11:53:55;;;;;;;9.30;4.40;;;;;;;;;;7325506;19;20321;-40
2024/04/18 11:56:20;;;;;;;25.93;12.93;;;;;;;;;;7348342;19;20842;-40
2024/04/18 11:58:46;;;;;;;6.10;2.20;;;;;;;;;;7347354;19;20396;-40
2024/04/18 12:01:13;;;;;;;9.17;4.40;;;;;;;;;;7325896;19;20662;-40
2024/04/18 12:03:40;;;;;;;9.98;3.88;;;;;;;;;;7346127;19;20305;-41
2024/04/18 12:06:05;;;;;;;11.38;4.45;;;;;;;;;;7325653;19;20368;-40
2024/04/18 12:08:31;;;;;;;5.67;1.00;;;;;;;;;;7347006;19;20370;-38
2024/04/18 12:10:56;;;;;;;5.47;1.13;;;;;;;;;;7324561;19;20358;-43
2024/04/18 12:13:21;;;;;;;5.80;1.40;;;;;;;;;;7347405;19;20369;-41
2024/04/18 12:15:47;;;;;;;6.60;2.03;;;;;;;;;;7347821;19;20328;-39
2024/04/18 12:18:12;;;;;;;8.90;2.73;;;;;;;;;;7325557;19;20295;-41
2024/04/18 12:20:40;;;;;;;6.43;1.60;;;;;;;;;;7348588;19;20852;-41
2024/04/18 12:23:05;;;;;;;7.60;1.20;;;;;;;;;;7325685;19;20335;-40
2024/04/18 12:25:30;;;;;;;6.07;1.70;;;;;;;;;;7346805;19;20372;-41
2024/04/18 12:27:56;;;;;;;5.33;2.10;;;;;;;;;;7323792;19;20325;-40
2024/04/18 12:30:21;;;;;;;4.30;1.43;;;;;;;;;;7346656;19;20292;-42
2024/04/18 12:32:46;;;;;;;6.17;1.80;;;;;;;;;;7347171;19;20390;-42
2024/04/18 12:35:12;;;;;;;7.03;1.50;;;;;;;;;;7322848;19;21112;-42
2024/04/18 12:37:38;;;;;;;3.70;1.35;;;;;;;;;;7348280;19;20382;-40
2024/04/18 12:40:05;;;;;;;4.53;1.47;;;;;;;;;;7324704;19;20974;-40
2024/04/18 12:42:30;;;;;;;4.18;1.30;;;;;;;;;;7346290;19;20297;-42
2024/04/18 12:44:56;;;;;;;3.57;1.00;;;;;;;;;;7323653;19;20336;-43
2024/04/18 12:47:21;;;;;;;3.80;1.45;;;;;;;;;;7346239;19;20377;-39
2024/04/18 12:49:47;;;;;;;4.17;1.40;;;;;;;;;;7346954;19;20345;-39
2024/04/18 12:52:13;;;;;;;6.45;1.48;;;;;;;;;;7325274;19;20374;-44
2024/04/18 12:54:38;;;;;;;5.63;1.30;;;;;;;;;;7346863;19;20301;-46
2024/04/18 12:57:04;;;;;;;8.30;1.67;;;;;;;;;;7324147;19;20353;-45
2024/04/18 12:59:29;;;;;;;5.53;1.30;;;;;;;;;;7346274;19;20304;-44
2024/04/18 13:01:55;;;;;;;4.13;1.40;;;;;;;;;;7322581;19;20411;-40
2024/04/18 13:04:20;;;;;;;6.60;1.57;;;;;;;;;;7345752;19;20288;-43
2024/04/18 13:06:45;;;;;;;5.25;1.20;;;;;;;;;;7345774;19;20899;-39
2024/04/18 13:09:11;;;;;;;6.40;1.50;;;;;;;;;;7324515;19;20321;-41
2024/04/18 13:11:36;;;;;;;7.30;1.70;;;;;;;;;;7346746;19;20376;-40
2024/04/18 13:14:04;;;;;;;6.70;1.73;;;;;;;;;;7322707;19;20317;-43
2024/04/18 13:16:33;;;;;;;5.10;1.10;;;;;;;;;;7345020;19;20313;-45
2024/04/18 13:18:58;;;;;;;7.70;1.73;;;;;;;;;;7324086;19;20321;-42
2024/04/18 13:21:23;;;;;;;7.93;1.45;;;;;;;;;;7345690;19;20908;-43
2024/04/18 13:23:49;;;;;;;5.03;1.40;;;;;;;;;;7345330;19;20372;-41
2024/04/18 13:26:14;;;;;;;7.90;2.67;;;;;;;;;;7323573;19;20290;-42
2024/04/18 13:28:39;;;;;;;8.30;1.77;;;;;;;;;;7345167;19;20675;-43
2024/04/18 13:31:10;;;;;;;3.80;1.10;;;;;;;;;;7323037;19;20348;-44
2024/04/18 13:33:36;;;;;;;6.90;1.70;;;;;;;;;;7344644;19;20332;-44
2024/04/18 13:36:01;;;;;;;6.13;1.48;;;;;;;;;;7322733;19;20856;-39
2024/04/18 13:38:27;;;;;;;10.73;1.90;;;;;;;;;;7345456;19;20712;-43
2024/04/18 13:40:52;;;;;;;8.17;1.50;;;;;;;;;;7345637;19;20334;-47
2024/04/18 13:43:18;;;;;;;7.60;1.50;;;;;;;;;;7322480;19;20376;-43
2024/04/18 13:45:43;;;;;;;10.03;2.67;;;;;;;;;;7343251;19;20348;-46
2024/04/18 13:48:08;;;;;;;6.43;1.40;;;;;;;;;;7322646;19;20782;-42
2024/04/18 13:50:34;;;;;;;6.73;1.80;;;;;;;;;;7345218;19;20304;-42
2024/04/18 13:52:59;;;;;;;9.15;2.50;;;;;;;;;;7322383;19;20368;-44
2024/04/18 13:55:25;;;;;;;4.97;1.40;;;;;;;;;;7343579;19;20303;-45
2024/04/18 13:57:50;;;;;;;6.28;1.77;;;;;;;;;;7344265;19;20324;-43
2024/04/18 14:00:16;;;;;;;5.57;1.30;;;;;;;;;;7323093;19;20380;-42
2024/04/18 14:02:41;;;;;;;5.05;1.33;;;;;;;;;;7342296;19;20312;-44
2024/04/18 14:05:07;;;;;;;6.60;1.30;;;;;;;;;;7321245;19;20324;-43
2024/04/18 14:07:32;;;;;;;6.38;1.60;;;;;;;;;;7344174;19;20300;-46
2024/04/18 14:09:58;;;;;;;9.07;1.40;;;;;;;;;;7322206;19;20354;-42
2024/04/18 14:12:23;;;;;;;6.35;1.20;;;;;;;;;;7343630;19;20285;-47
2024/04/18 14:14:55;;;;;;;5.50;1.20;;;;;;;;;;7344225;19;20329;-44
2024/04/18 14:20:05;;;;;;;5.68;1.63;;;;;;;;;;7322285;19;20317;-42
2024/04/18 14:22:31;;;;;;;5.32;1.50;;;;;;;;;;7344401;19;20293;-44
2024/04/18 14:24:56;;;;;;;7.53;1.08;;;;;;;;;;7321155;19;20317;-45